Time;durP1;ratioP1;P1;durP2;ratioP2;P2;SDS_P1;SDS_P2;PMS_P1;PMS_P2;Temp;Humidity;BMP_temperature;BMP_pressure;BME280_temperature;BME280_humidity;BME280_pressure;Samples;Min_cycle;Max_cycle;Signal;HPM_P1;HPM_P2
2023/12/20 00:03:13;;;;;;;0.97;0.90;;;6.60;99.90;;;;;;9822328;30;20202;-81
2023/12/20 00:08:34;;;;;;;1.57;1.27;;;6.60;99.90;;;;;;9808643;30;20217;-81
2023/12/20 00:13:55;;;;;;;0.80;0.80;;;6.60;99.90;;;;;;9821032;30;20524;-80
2023/12/20 00:19:16;;;;;;;0.67;0.60;;;6.70;99.90;;;;;;9808227;30;20241;-82
2023/12/20 00:24:38;;;;;;;0.70;0.70;;;6.70;99.90;;;;;;9806736;30;20261;-81
2023/12/20 00:29:59;;;;;;;0.50;0.50;;;6.60;99.90;;;;;;9807868;30;20218;-81
2023/12/20 00:35:21;;;;;;;1.13;0.50;;;6.60;99.90;;;;;;9795652;30;20559;-81
2023/12/20 00:40:42;;;;;;;1.13;0.70;;;6.70;99.90;;;;;;9807393;30;20249;-82
2023/12/20 00:46:03;;;;;;;2.40;0.90;;;6.70;99.90;;;;;;9795239;30;20507;-81
2023/12/20 00:51:25;;;;;;;2.80;1.07;;;6.60;99.90;;;;;;9807360;30;20239;-82
2023/12/20 00:56:46;;;;;;;1.77;0.90;;;6.50;93.20;;;;;;9817088;30;20214;-81
2023/12/20 01:02:08;;;;;;;1.53;1.03;;;6.40;91.70;;;;;;9819168;30;20219;-81
2023/12/20 01:07:30;;;;;;;1.27;0.90;;;6.30;99.90;;;;;;9806579;30;20209;-80
2023/12/20 01:12:51;;;;;;;7.40;1.10;;;6.30;99.90;;;;;;9819009;30;20566;-81
2023/12/20 01:18:12;;;;;;;1.33;0.50;;;6.20;99.90;;;;;;9806136;30;20417;-81
2023/12/20 01:23:34;;;;;;;0.70;0.37;;;6.20;90.30;;;;;;9818335;30;20201;-82
2023/12/20 01:28:55;;;;;;;2.83;0.63;;;6.20;72.40;;;;;;9804464;30;20408;-81
2023/12/20 01:34:17;;;;;;;0.70;0.60;;;6.30;40.70;;;;;;9818428;30;20201;-82
2023/12/20 01:39:38;;;;;;;3.27;0.67;;;6.20;32.90;;;;;;9818861;30;20448;-81
2023/12/20 01:44:59;;;;;;;1.50;0.50;;;6.10;20.80;;;;;;9805518;30;20297;-81
2023/12/20 01:50:21;;;;;;;1.23;0.77;;;6.10;26.30;;;;;;9805261;30;20351;-82
2023/12/20 01:55:43;;;;;;;3.50;1.43;;;6.00;33.40;;;;;;9804485;30;20376;-82
2023/12/20 02:01:04;;;;;;;2.63;1.23;;;5.90;47.30;;;;;;9805283;30;20234;-81
2023/12/20 02:06:31;;;;;;;4.37;1.50;;;5.90;68.90;;;;;;9805012;30;20198;-81
2023/12/20 02:11:52;;;;;;;1.07;1.07;;;5.80;63.20;;;;;;9804147;30;20515;-81
2023/12/20 02:17:13;;;;;;;2.27;1.20;;;5.80;73.50;;;;;;9792542;30;20206;-82
2023/12/20 02:22:35;;;;;;;4.73;1.40;;;5.90;32.40;;;;;;9816719;30;20288;-81
2023/12/20 02:27:56;;;;;;;2.27;1.20;;;5.80;15.30;;;;;;9791783;30;20274;-82
2023/12/20 02:33:17;;;;;;;4.13;1.37;;;5.70;1.00;;;;;;9816068;30;20256;-81
2023/12/20 02:38:39;;;;;;;5.00;1.13;;;5.70;1.00;;;;;;9791864;30;20239;-81
2023/12/20 02:44:02;;;;;;;6.60;1.27;;;5.60;1.00;;;;;;9802861;30;20390;-81
2023/12/20 02:49:23;;;;;;;8.83;1.70;;;5.50;1.00;;;;;;9813552;30;20551;-82
2023/12/20 02:54:44;;;;;;;4.93;1.33;;;5.50;1.00;;;;;;9802862;30;20209;-81
2023/12/20 03:00:07;;;;;;;6.87;1.40;;;5.40;1.00;;;;;;9803878;30;20237;-81
2023/12/20 03:05:28;;;;;;;5.63;1.20;;;5.40;1.00;;;;;;9803743;30;20214;-81
2023/12/20 03:10:50;;;;;;;4.40;1.37;;;5.40;1.00;;;;;;9803856;30;20222;-82
2023/12/20 03:16:12;;;;;;;9.37;1.87;;;5.40;1.00;;;;;;9815861;30;20463;-80
2023/12/20 03:21:34;;;;;;;12.27;2.30;;;5.40;1.00;;;;;;9818659;30;20226;-81
2023/12/20 03:26:55;;;;;;;4.37;1.20;;;5.40;1.00;;;;;;9810125;30;20409;-81
2023/12/20 03:32:16;;;;;;;4.80;1.53;;;5.40;1.00;;;;;;9809928;30;20210;-80
2023/12/20 03:37:38;;;;;;;5.33;1.30;;;5.40;1.00;;;;;;9822409;30;20302;-80
2023/12/20 03:42:59;;;;;;;8.13;1.47;;;5.40;1.00;;;;;;9821099;30;20456;-80
2023/12/20 03:48:20;;;;;;;5.83;1.20;;;5.40;1.00;;;;;;9800241;30;20247;-80
2023/12/20 03:53:42;;;;;;;5.30;1.13;;;5.30;1.00;;;;;;9809263;30;20527;-80
2023/12/20 03:59:03;;;;;;;5.33;1.20;;;5.30;1.00;;;;;;9808619;30;20291;-80
2023/12/20 04:04:24;;;;;;;8.90;1.30;;;5.20;1.00;;;;;;9808647;30;20236;-81
2023/12/20 04:09:46;;;;;;;7.23;1.67;;;5.10;1.00;;;;;;9796304;30;20294;-81
2023/12/20 04:15:09;;;;;;;5.87;1.20;;;5.10;1.00;;;;;;9818796;30;20239;-79
2023/12/20 04:20:30;;;;;;;4.07;1.10;;;5.10;1.00;;;;;;9808455;30;20309;-79
2023/12/20 04:25:52;;;;;;;5.23;1.40;;;5.00;1.00;;;;;;9816560;30;20217;-80
2023/12/20 04:31:13;;;;;;;3.30;1.20;;;5.00;1.00;;;;;;9807723;30;20213;-81
2023/12/20 04:36:35;;;;;;;7.37;2.10;;;5.00;1.00;;;;;;9795424;30;20482;-80
2023/12/20 04:41:56;;;;;;;10.20;6.17;;;4.90;1.00;;;;;;9795137;30;20279;-81
2023/12/20 04:47:17;;;;;;;15.97;6.83;;;4.90;1.00;;;;;;9818434;30;20482;-81
2023/12/20 04:52:39;;;;;;;11.90;5.30;;;4.90;1.00;;;;;;9820788;30;20202;-80
2023/12/20 04:58:01;;;;;;;10.03;4.37;;;4.90;1.00;;;;;;9806729;30;20317;-80
2023/12/20 05:03:22;;;;;;;8.53;4.13;;;4.80;1.00;;;;;;9819850;30;20201;-81
2023/12/20 05:08:43;;;;;;;5.50;2.70;;;4.70;1.00;;;;;;9793215;30;20244;-81
2023/12/20 05:14:04;;;;;;;4.40;1.53;;;4.70;1.00;;;;;;9794034;30;20563;-80
2023/12/20 05:19:26;;;;;;;5.83;1.50;;;4.60;1.00;;;;;;9818273;30;20284;-81
2023/12/20 05:24:47;;;;;;;5.77;1.50;;;4.60;1.00;;;;;;9806168;30;20206;-81
2023/12/20 05:30:09;;;;;;;6.03;2.00;;;4.60;1.00;;;;;;9793634;30;20525;-81
2023/12/20 05:35:30;;;;;;;9.63;2.30;;;4.60;1.00;;;;;;9805104;30;20202;-80
2023/12/20 05:40:52;;;;;;;7.33;2.30;;;4.60;1.00;;;;;;9805872;30;20448;-81
2023/12/20 05:46:13;;;;;;;8.07;2.00;;;4.60;1.00;;;;;;9817141;30;20202;-81
2023/12/20 05:51:34;;;;;;;6.43;1.40;;;4.60;1.00;;;;;;9805181;30;20299;-82
2023/12/20 05:56:56;;;;;;;4.70;2.23;;;4.60;1.00;;;;;;9817697;30;20206;-80
2023/12/20 06:02:17;;;;;;;6.60;2.23;;;4.50;1.00;;;;;;9816808;30;20232;-81
2023/12/20 06:07:38;;;;;;;10.37;2.30;;;4.50;1.00;;;;;;9804210;30;20214;-80
2023/12/20 06:13:00;;;;;;;6.70;2.03;;;4.50;1.00;;;;;;9804969;30;20213;-79
2023/12/20 06:18:22;;;;;;;3.60;1.50;;;4.50;1.00;;;;;;9804701;30;20617;-81
2023/12/20 06:23:43;;;;;;;10.97;2.63;;;4.50;1.00;;;;;;9792569;30;20515;-81
2023/12/20 06:29:04;;;;;;;6.07;1.93;;;4.50;1.00;;;;;;9792335;30;20400;-81
2023/12/20 06:34:25;;;;;;;10.23;3.33;;;4.50;1.00;;;;;;9817172;30;20207;-83
2023/12/20 06:39:47;;;;;;;7.33;2.67;;;4.50;1.00;;;;;;9803552;30;20235;-82
2023/12/20 06:45:08;;;;;;;4.50;1.73;;;4.50;1.00;;;;;;9804337;30;20215;-82
2023/12/20 06:50:30;;;;;;;5.87;1.80;;;4.50;1.00;;;;;;9816751;30;20265;-83
2023/12/20 06:55:51;;;;;;;8.47;2.07;;;4.40;1.00;;;;;;9805646;30;20286;-82
2023/12/20 07:01:13;;;;;;;5.87;2.13;;;4.40;1.00;;;;;;9784426;30;20543;-81
2023/12/20 07:06:34;;;;;;;10.47;2.53;;;4.30;1.00;;;;;;9822431;30;20399;-81
2023/12/20 07:11:56;;;;;;;13.73;4.53;;;4.30;1.00;;;;;;9810870;30;20240;-80
2023/12/20 07:17:17;;;;;;;11.63;3.53;;;4.20;1.00;;;;;;9798383;30;20215;-81
2023/12/20 07:22:39;;;;;;;10.97;4.83;;;4.10;1.00;;;;;;9810253;30;20228;-80
2023/12/20 07:28:00;;;;;;;25.33;11.10;;;4.00;1.00;;;;;;9822522;30;20251;-81
2023/12/20 07:33:21;;;;;;;16.40;8.57;;;4.00;1.00;;;;;;9809839;30;20219;-80
2023/12/20 07:38:44;;;;;;;21.03;10.17;;;3.90;1.00;;;;;;9796266;30;20421;-81
2023/12/20 07:44:06;;;;;;;42.93;24.77;;;3.90;1.00;;;;;;9822074;30;20201;-82
2023/12/20 07:49:27;;;;;;;44.47;25.50;;;3.90;1.00;;;;;;9809691;30;20237;-81
2023/12/20 07:54:49;;;;;;;44.87;22.87;;;3.80;1.00;;;;;;9796685;30;20259;-80
2023/12/20 08:00:10;;;;;;;41.10;20.17;;;3.80;1.00;;;;;;9808641;30;20236;-80
2023/12/20 08:05:32;;;;;;;29.20;15.37;;;3.80;1.00;;;;;;9808038;30;20221;-82
2023/12/20 08:10:53;;;;;;;31.80;16.50;;;3.90;1.00;;;;;;9795462;30;20218;-80
2023/12/20 08:16:17;;;;;;;25.97;14.50;;;4.00;1.00;;;;;;9808407;30;20232;-80
2023/12/20 08:21:38;;;;;;;31.30;9.57;;;4.00;1.00;;;;;;9787428;30;20496;-82
2023/12/20 08:26:59;;;;;;;13.53;5.63;;;4.10;1.00;;;;;;9811910;30;20216;-80
2023/12/20 08:32:21;;;;;;;15.87;5.37;;;4.20;1.00;;;;;;9814617;30;20248;-80
2023/12/20 08:37:43;;;;;;;19.37;6.97;;;4.30;1.00;;;;;;9801843;30;20206;-80
2023/12/20 08:43:04;;;;;;;17.90;6.73;;;4.60;1.00;;;;;;9802965;30;20225;-81
2023/12/20 08:48:26;;;;;;;12.00;3.90;;;4.80;99.90;;;;;;9790259;30;20268;-80
2023/12/20 08:53:47;;;;;;;12.23;4.90;;;4.80;31.60;;;;;;9800194;30;20218;-84
2023/12/20 08:59:09;;;;;;;14.30;4.67;;;4.80;99.90;;;;;;9800473;30;20248;-82
2023/12/20 09:04:30;;;;;;;19.83;8.00;;;4.70;99.90;;;;;;9790098;30;20279;-87
2023/12/20 09:09:52;;;;;;;15.23;5.83;;;4.70;99.90;;;;;;9789631;30;20241;-82
2023/12/20 09:15:14;;;;;;;12.10;5.57;;;4.80;99.90;;;;;;9789851;30;20208;-82
2023/12/20 09:20:35;;;;;;;13.10;4.37;;;4.80;99.90;;;;;;9806430;30;20234;-79
2023/12/20 09:25:57;;;;;;;11.70;3.87;;;4.80;1.00;;;;;;9811673;30;20231;-84
2023/12/20 09:31:19;;;;;;;15.37;4.30;;;4.80;68.50;;;;;;9801408;30;20384;-80
2023/12/20 09:36:46;;;;;;;12.77;4.63;;;4.80;1.00;;;;;;9801687;30;20260;-84
2023/12/20 09:42:07;;;;;;;8.77;3.60;;;4.90;99.90;;;;;;9804361;30;20539;-85
2023/12/20 09:47:29;;;;;;;14.40;5.83;;;4.90;99.90;;;;;;9782616;30;20251;-80
2023/12/20 09:52:52;;;;;;;14.37;5.43;;;4.90;99.90;;;;;;9764804;30;20218;-84
2023/12/20 09:58:13;;;;;;;19.13;5.07;;;5.00;99.90;;;;;;9800351;30;20256;-81
2023/12/20 10:03:36;;;;;;;16.10;7.53;;;5.10;99.90;;;;;;9790219;30;20237;-84
2023/12/20 10:08:58;;;;;;;17.47;7.70;;;5.10;99.90;;;;;;9798567;30;20209;-87
2023/12/20 10:14:19;;;;;;;15.57;7.30;;;5.10;26.10;;;;;;9801199;30;20214;-85
2023/12/20 10:19:42;;;;;;;25.03;8.10;;;5.10;1.00;;;;;;9801273;30;20257;-85
2023/12/20 10:25:04;;;;;;;21.03;9.37;;;5.10;99.90;;;;;;9810655;30;20316;-82
2023/12/20 10:30:27;;;;;;;20.93;8.17;;;5.10;99.90;;;;;;9800592;30;20250;-83
2023/12/20 10:35:48;;;;;;;40.10;17.27;;;5.10;99.90;;;;;;9806498;30;20516;-84
2023/12/20 10:41:11;;;;;;;17.43;6.47;;;5.10;99.90;;;;;;9785214;30;20240;-85
2023/12/20 10:46:34;;;;;;;13.30;6.10;;;5.10;99.90;;;;;;9773090;30;20224;-85
2023/12/20 10:51:57;;;;;;;21.33;6.30;;;5.10;99.90;;;;;;9785320;30;20210;-81
2023/12/20 10:57:19;;;;;;;15.10;6.87;;;5.10;1.00;;;;;;9789851;30;20223;-83
2023/12/20 11:02:41;;;;;;;20.10;5.77;;;5.00;1.00;;;;;;9777420;30;20242;-83
2023/12/20 11:08:27;;;;;;;15.93;6.03;;;5.10;1.00;;;;;;9796859;30;20590;-83
2023/12/20 11:14:05;;;;;;;25.00;8.00;;;5.20;1.00;;;;;;9805342;30;20260;-83
2023/12/20 11:19:26;;;;;;;12.37;4.97;;;5.20;1.00;;;;;;9804387;30;20241;-83
2023/12/20 11:24:50;;;;;;;8.03;4.40;;;5.20;1.00;;;;;;9791290;30;20616;-83
2023/12/20 11:30:14;;;;;;;11.63;4.47;;;5.10;1.00;;;;;;9816971;30;20210;-83
2023/12/20 11:35:36;;;;;;;9.83;4.10;;;5.30;1.00;;;;;;9802151;30;20243;-82
2023/12/20 11:41:03;;;;;;;17.17;7.40;;;5.30;1.00;;;;;;9765331;30;20720;-82
2023/12/20 11:46:25;;;;;;;12.67;3.70;;;5.20;1.00;;;;;;9767037;30;20241;-82
2023/12/20 11:51:47;;;;;;;6.40;3.27;;;5.20;1.00;;;;;;9782050;30;20215;-81
2023/12/20 11:57:08;;;;;;;11.37;3.80;;;5.10;1.00;;;;;;9771976;30;20893;-82
2023/12/20 12:02:30;;;;;;;7.77;4.33;;;5.10;1.00;;;;;;9804629;30;20256;-84
2023/12/20 12:07:52;;;;;;;6.83;3.27;;;5.00;1.00;;;;;;9791127;30;20213;-82
2023/12/20 12:13:14;;;;;;;7.77;3.00;;;5.10;1.00;;;;;;9790939;30;20260;-82
2023/12/20 12:18:36;;;;;;;8.23;3.60;;;5.10;1.00;;;;;;9785712;30;20229;-82
2023/12/20 12:24:07;;;;;;;6.93;3.10;;;5.10;1.00;;;;;;9784991;30;20276;-82
2023/12/20 12:29:29;;;;;;;7.10;3.50;;;5.10;1.00;;;;;;9802957;30;20255;-82
2023/12/20 12:34:50;;;;;;;10.27;4.20;;;5.10;1.00;;;;;;9802846;30;20213;-81
2023/12/20 12:40:13;;;;;;;10.63;3.90;;;5.10;1.00;;;;;;9780781;30;20246;-83
2023/12/20 12:45:34;;;;;;;6.57;3.27;;;5.10;1.00;;;;;;9766695;30;20291;-82
2023/12/20 12:50:59;;;;;;;13.63;6.27;;;5.10;1.00;;;;;;9766285;30;20336;-82
2023/12/20 12:56:21;;;;;;;22.27;12.70;;;5.10;1.00;;;;;;9753932;30;20209;-83
2023/12/20 13:01:43;;;;;;;18.87;7.57;;;5.00;1.00;;;;;;9801082;30;20323;-80
2023/12/20 13:07:05;;;;;;;10.40;4.67;;;5.00;1.00;;;;;;9814198;30;20213;-82
2023/12/20 13:12:26;;;;;;;6.77;3.53;;;5.00;1.00;;;;;;9801797;30;20240;-82
2023/12/20 13:17:47;;;;;;;18.23;6.27;;;5.00;1.00;;;;;;9789911;30;20241;-81
2023/12/20 13:23:09;;;;;;;20.90;7.90;;;5.00;1.00;;;;;;9794694;30;20280;-82
2023/12/20 13:28:30;;;;;;;16.03;7.07;;;5.10;1.00;;;;;;9800464;30;20578;-81
2023/12/20 13:33:54;;;;;;;7.47;4.37;;;5.10;1.00;;;;;;9789438;30;20216;-82
2023/12/20 13:39:16;;;;;;;16.10;6.07;;;5.00;1.00;;;;;;9801483;30;20237;-81
2023/12/20 13:44:38;;;;;;;16.10;7.30;;;5.00;1.00;;;;;;9813126;30;20244;-90
2023/12/20 13:49:59;;;;;;;13.57;6.60;;;5.00;1.00;;;;;;9789002;30;20613;-83
2023/12/20 13:55:24;;;;;;;15.03;6.43;;;5.00;1.00;;;;;;9801057;30;20274;-80
2023/12/20 14:00:46;;;;;;;13.33;6.20;;;5.00;1.00;;;;;;9788711;30;20490;-81
2023/12/20 14:06:07;;;;;;;13.93;7.90;;;5.00;1.00;;;;;;9798949;30;20209;-86
2023/12/20 14:11:28;;;;;;;17.03;7.57;;;4.90;1.00;;;;;;9789630;30;20247;-83
2023/12/20 14:16:50;;;;;;;10.97;5.43;;;4.90;1.00;;;;;;9814212;30;20393;-84
2023/12/20 14:22:16;;;;;;;9.43;4.40;;;4.90;1.00;;;;;;9800658;30;20272;-82
2023/12/20 14:27:38;;;;;;;19.97;6.57;;;4.90;1.00;;;;;;9786823;30;20290;-81
2023/12/20 14:33:00;;;;;;;13.67;4.57;;;4.90;1.00;;;;;;9812005;30;20216;-82
2023/12/20 14:38:22;;;;;;;11.40;5.23;;;4.80;1.00;;;;;;9798516;30;20402;-82
2023/12/20 14:43:44;;;;;;;14.70;6.70;;;4.90;1.00;;;;;;9787077;30;20252;-79
2023/12/20 14:49:06;;;;;;;12.40;5.33;;;4.80;1.00;;;;;;9787012;30;20614;-81
2023/12/20 14:54:27;;;;;;;9.30;3.83;;;4.90;1.00;;;;;;9811141;30;20236;-80
2023/12/20 14:59:48;;;;;;;9.30;4.67;;;4.90;1.00;;;;;;9795095;30;20282;-81
2023/12/20 15:05:10;;;;;;;12.77;4.83;;;4.90;1.00;;;;;;9762365;30;20223;-80
2023/12/20 15:10:31;;;;;;;18.90;7.10;;;4.90;1.00;;;;;;9804892;30;20226;-80
2023/12/20 15:15:52;;;;;;;18.47;7.07;;;4.90;1.00;;;;;;9798267;30;20508;-80
2023/12/20 15:21:15;;;;;;;13.23;6.07;;;5.00;1.00;;;;;;9805344;30;20463;-81
2023/12/20 15:26:38;;;;;;;12.60;4.43;;;5.00;1.00;;;;;;9790934;30;20299;-89
2023/12/20 15:31:59;;;;;;;10.53;3.60;;;4.90;1.00;;;;;;9806043;30;20566;-85
2023/12/20 15:37:22;;;;;;;10.50;4.10;;;4.80;1.00;;;;;;9805262;30;20223;-81
2023/12/20 15:42:43;;;;;;;6.30;3.10;;;4.90;1.00;;;;;;9817468;30;20252;-81
2023/12/20 15:48:05;;;;;;;4.43;2.60;;;4.80;1.00;;;;;;9816767;30;20268;-80
2023/12/20 15:53:26;;;;;;;11.13;3.63;;;4.70;1.00;;;;;;9804813;30;20216;-79
2023/12/20 15:58:51;;;;;;;5.83;3.13;;;4.60;1.00;;;;;;9799776;30;20278;-80
2023/12/20 16:04:13;;;;;;;3.80;1.80;;;4.40;1.00;;;;;;9792518;30;20394;-83
2023/12/20 16:09:34;;;;;;;2.58;1.65;;;4.30;1.00;;;;;;9820876;30;20477;-81
2023/12/20 16:14:56;;;;;;;1.80;1.00;;;4.20;1.00;;;;;;9821637;30;20520;-81
2023/12/20 16:20:17;;;;;;;4.53;2.23;;;4.00;1.00;;;;;;9798079;30;20232;-81
2023/12/20 16:25:39;;;;;;;2.63;1.83;;;4.00;1.00;;;;;;9808909;30;20215;-79
2023/12/20 16:31:00;;;;;;;8.30;1.53;;;3.90;1.00;;;;;;9817616;30;20216;-84
2023/12/20 16:36:21;;;;;;;4.07;2.30;;;4.00;1.00;;;;;;9801705;30;20201;-82
2023/12/20 16:41:43;;;;;;;3.67;1.53;;;4.00;1.00;;;;;;9822152;30;20298;-82
2023/12/20 16:47:04;;;;;;;3.33;1.90;;;4.00;1.00;;;;;;9800635;30;20344;-79
2023/12/20 16:52:26;;;;;;;3.10;1.60;;;4.10;1.00;;;;;;9825242;30;20548;-85
2023/12/20 16:57:47;;;;;;;3.57;1.50;;;4.10;1.00;;;;;;9809942;30;20235;-86
2023/12/20 17:03:08;;;;;;;3.27;1.60;;;4.20;1.00;;;;;;9807874;30;20312;-87
2023/12/20 17:08:29;;;;;;;9.90;2.43;;;4.20;1.00;;;;;;9840494;30;20276;-80
2023/12/20 17:13:52;;;;;;;6.27;2.00;;;4.10;1.00;;;;;;9795205;30;20211;-80
2023/12/20 17:19:13;;;;;;;4.43;1.80;;;4.20;1.00;;;;;;9818907;30;20423;-84
2023/12/20 17:24:35;;;;;;;2.97;1.17;;;4.10;1.00;;;;;;9819222;30;20390;-81
2023/12/20 17:29:56;;;;;;;8.57;1.77;;;4.20;1.00;;;;;;9806945;30;20214;-84
2023/12/20 17:35:19;;;;;;;7.90;1.93;;;4.20;1.00;;;;;;9805070;30;20287;-87
2023/12/20 17:40:41;;;;;;;6.33;1.83;;;4.20;1.00;;;;;;9818668;30;20250;-80
2023/12/20 17:46:02;;;;;;;5.83;1.33;;;4.20;99.90;;;;;;9806206;30;20250;-84
2023/12/20 17:51:24;;;;;;;3.80;1.53;;;4.10;1.00;;;;;;9784152;30;20559;-84
2023/12/20 17:56:46;;;;;;;6.83;1.63;;;4.20;1.00;;;;;;9784401;30;20244;-87
2023/12/20 18:02:07;;;;;;;9.13;2.50;;;4.20;1.00;;;;;;9800101;30;20266;-87
2023/12/20 18:07:29;;;;;;;7.97;2.30;;;4.10;1.00;;;;;;9804731;30;20294;-80
2023/12/20 18:12:50;;;;;;;4.47;2.00;;;4.20;1.00;;;;;;9817885;30;20488;-85
2023/12/20 18:18:12;;;;;;;5.63;1.87;;;4.20;1.00;;;;;;9817397;30;20214;-86
2023/12/20 18:23:33;;;;;;;7.17;1.80;;;4.20;1.00;;;;;;9805462;30;20259;-80
2023/12/20 18:28:54;;;;;;;4.80;2.20;;;4.00;1.00;;;;;;9803410;30;20522;-81
2023/12/20 18:34:15;;;;;;;5.90;2.63;;;4.00;1.00;;;;;;9817310;30;20561;-85
2023/12/20 18:39:38;;;;;;;4.30;2.00;;;4.00;1.00;;;;;;9817160;30;20199;-82
2023/12/20 18:44:59;;;;;;;6.03;1.60;;;3.90;1.00;;;;;;9802747;30;20220;-83
2023/12/20 18:50:20;;;;;;;5.60;2.13;;;3.80;1.00;;;;;;9815448;30;20247;-80
2023/12/20 18:55:42;;;;;;;6.13;2.20;;;3.70;1.00;;;;;;9824315;30;20195;-80
2023/12/20 19:01:03;;;;;;;4.43;1.47;;;3.70;1.00;;;;;;9811585;30;20229;-80
2023/12/20 19:06:25;;;;;;;5.17;2.33;;;3.60;1.00;;;;;;9823949;30;20195;-82
2023/12/20 19:11:46;;;;;;;3.83;2.10;;;3.30;1.00;;;;;;9824691;30;20210;-80
2023/12/20 19:17:07;;;;;;;1.50;1.17;;;3.10;99.90;;;;;;9810768;30;20213;-83
2023/12/20 19:22:31;;;;;;;6.43;1.30;;;2.90;99.90;;;;;;9822840;30;20322;-83
2023/12/20 19:27:53;;;;;;;4.07;2.00;;;2.80;1.00;;;;;;9823602;30;20455;-83
2023/12/20 19:33:14;;;;;;;3.40;1.70;;;2.80;1.00;;;;;;9810540;30;20404;-82
2023/12/20 19:38:36;;;;;;;5.03;2.00;;;2.70;1.00;;;;;;9822295;30;20219;-84
2023/12/20 19:43:58;;;;;;;3.83;2.00;;;2.80;1.00;;;;;;9810670;30;20224;-81
2023/12/20 19:49:19;;;;;;;2.67;1.87;;;2.70;1.00;;;;;;9822611;30;20235;-85
2023/12/20 19:54:41;;;;;;;4.33;2.03;;;2.80;1.00;;;;;;9797877;30;20226;-89
2023/12/20 20:00:04;;;;;;;4.83;2.53;;;2.80;1.00;;;;;;9809722;30;20231;-80
2023/12/20 20:05:32;;;;;;;6.07;2.97;;;2.70;1.00;;;;;;9808506;30;20302;-85
2023/12/20 20:10:53;;;;;;;7.47;4.50;;;2.70;1.00;;;;;;9796062;30;20237;-86
2023/12/20 20:16:15;;;;;;;4.63;2.70;;;2.60;1.00;;;;;;9807720;30;20219;-82
2023/12/20 20:21:37;;;;;;;3.43;1.80;;;2.50;1.00;;;;;;9808873;30;20437;-79
2023/12/20 20:26:58;;;;;;;4.93;2.30;;;2.40;1.00;;;;;;9808641;30;20376;-83
2023/12/20 20:32:19;;;;;;;3.53;1.43;;;2.30;1.00;;;;;;9794699;30;21433;-81
2023/12/20 20:37:40;;;;;;;4.90;1.90;;;2.20;1.00;;;;;;9811757;30;20200;-80
2023/12/20 20:43:02;;;;;;;2.77;1.67;;;2.20;1.00;;;;;;9820017;30;20241;-79
2023/12/20 20:48:24;;;;;;;2.80;1.53;;;2.30;1.00;;;;;;9820249;30;20398;-81
2023/12/20 20:53:47;;;;;;;11.40;4.00;;;2.30;1.00;;;;;;9819891;30;20231;-83
2023/12/20 20:59:08;;;;;;;1.90;1.33;;;2.30;1.00;;;;;;9819601;30;20252;-81
2023/12/20 21:04:29;;;;;;;8.50;2.30;;;2.20;1.00;;;;;;9805801;30;20238;-79
2023/12/20 21:09:50;;;;;;;6.23;2.57;;;2.30;1.00;;;;;;9818272;30;20207;-80
2023/12/20 21:15:14;;;;;;;2.40;1.90;;;2.30;1.00;;;;;;9817636;30;20272;-79
2023/12/20 21:20:35;;;;;;;9.03;2.60;;;2.10;1.00;;;;;;9794436;30;20402;-82
2023/12/20 21:25:56;;;;;;;11.07;3.23;;;2.20;1.00;;;;;;9817202;30;20203;-79
2023/12/20 21:31:17;;;;;;;11.13;3.60;;;2.30;1.00;;;;;;9817427;30;20506;-79
2023/12/20 21:36:39;;;;;;;6.07;3.80;;;2.40;1.00;;;;;;9806164;30;20227;-80
2023/12/20 21:42:00;;;;;;;8.37;4.40;;;2.40;1.00;;;;;;9817876;30;20308;-80
2023/12/20 21:47:21;;;;;;;14.53;4.90;;;2.50;1.00;;;;;;9805944;30;20239;-79
2023/12/20 21:52:43;;;;;;;11.03;4.80;;;2.60;1.00;;;;;;9817789;30;20306;-87
2023/12/20 21:58:04;;;;;;;17.63;5.30;;;2.60;1.00;;;;;;9805106;30;20211;-84
2023/12/20 22:03:25;;;;;;;14.73;5.00;;;2.70;1.00;;;;;;9805287;30;20529;-84
2023/12/20 22:08:47;;;;;;;10.30;4.20;;;2.70;1.00;;;;;;9793234;30;20209;-80
2023/12/20 22:14:08;;;;;;;14.37;4.37;;;2.60;1.00;;;;;;9817802;30;20497;-84
2023/12/20 22:19:29;;;;;;;14.17;5.23;;;2.80;1.00;;;;;;9817192;30;20215;-83
2023/12/20 22:24:51;;;;;;;11.57;3.90;;;2.80;1.00;;;;;;9804868;30;20261;-80
2023/12/20 22:30:13;;;;;;;11.13;3.53;;;2.80;1.00;;;;;;9804271;30;20210;-82
2023/12/20 22:35:34;;;;;;;13.70;4.40;;;2.90;1.00;;;;;;9805373;30;20210;-80
2023/12/20 22:40:56;;;;;;;18.80;5.57;;;2.80;1.00;;;;;;9817216;30;20246;-85
2023/12/20 22:46:17;;;;;;;17.53;6.27;;;2.90;1.00;;;;;;9803321;30;20204;-82
2023/12/20 22:51:38;;;;;;;13.10;4.90;;;2.80;1.00;;;;;;9768229;30;20263;-80
2023/12/20 22:57:00;;;;;;;16.43;4.70;;;2.80;1.00;;;;;;9791817;30;20269;-80
2023/12/20 23:02:21;;;;;;;13.67;3.83;;;2.80;1.00;;;;;;9803513;30;20630;-80
2023/12/20 23:07:42;;;;;;;15.97;4.17;;;2.90;1.00;;;;;;9804682;30;20195;-80
2023/12/20 23:13:05;;;;;;;12.23;3.83;;;2.80;1.00;;;;;;9816729;30;20218;-81
2023/12/20 23:18:26;;;;;;;20.40;3.60;;;2.90;1.00;;;;;;9804276;30;20211;-80
2023/12/20 23:23:47;;;;;;;12.60;3.47;;;2.90;1.00;;;;;;9816575;30;20300;-81
2023/12/20 23:29:09;;;;;;;8.90;3.47;;;2.90;1.00;;;;;;9803910;30;20216;-81
2023/12/20 23:34:30;;;;;;;13.50;4.10;;;3.00;1.00;;;;;;9818121;30;20203;-83
2023/12/20 23:39:51;;;;;;;7.77;3.40;;;2.90;1.00;;;;;;9808833;30;20486;-82
2023/12/20 23:45:12;;;;;;;13.13;3.70;;;3.00;1.00;;;;;;9823739;30;20211;-79
2023/12/20 23:50:33;;;;;;;8.13;3.87;;;3.00;1.00;;;;;;9777921;30;20315;-80
2023/12/20 23:55:55;;;;;;;9.40;3.63;;;3.00;1.00;;;;;;9764797;30;20232;-79
